Time;durP1;ratioP1;P1;durP2;ratioP2;P2;SDS_P1;SDS_P2;PMS_P1;PMS_P2;Temp;Humidity;BMP_temperature;BMP_pressure;BME280_temperature;BME280_humidity;BME280_pressure;Samples;Min_cycle;Max_cycle;Signal;HPM_P1;HPM_P2
2022/08/22 00:00:52;;;;;;;5.13;4.90;;;;;;;;;;4968153;28;20815;-92
2022/08/22 00:03:25;;;;;;;5.17;4.97;;;;;;;;;;4986024;28;20435;-92
2022/08/22 00:06:04;;;;;;;5.27;4.97;;;;;;;;;;4990103;28;20437;-91
2022/08/22 00:08:37;;;;;;;5.53;5.10;;;;;;;;;;4974496;28;20785;-92
2022/08/22 00:11:04;;;;;;;4.80;4.70;;;;;;;;;;4986669;28;20470;-93
2022/08/22 00:13:56;;;;;;;5.43;5.03;;;;;;;;;;4978638;28;20464;-94
2022/08/22 00:16:37;;;;;;;6.57;5.00;;;;;;;;;;4975476;28;20432;-93
2022/08/22 00:19:06;;;;;;;5.03;4.70;;;;;;;;;;4986299;28;20481;-93
2022/08/22 00:21:35;;;;;;;5.33;4.90;;;;;;;;;;4991954;28;20436;-93
2022/08/22 00:24:00;;;;;;;5.00;4.80;;;;;;;;;;4980890;28;20467;-94
2022/08/22 00:26:42;;;;;;;5.43;5.13;;;;;;;;;;4995585;28;20443;-93
2022/08/22 00:29:12;;;;;;;5.23;5.03;;;;;;;;;;4997090;28;20424;-93
2022/08/22 00:31:54;;;;;;;12.93;5.20;;;;;;;;;;4985253;28;20518;-93
2022/08/22 00:34:22;;;;;;;5.37;4.87;;;;;;;;;;4993017;28;20428;-93
2022/08/22 00:36:57;;;;;;;4.40;4.30;;;;;;;;;;4995878;28;20447;-93
2022/08/22 00:39:43;;;;;;;5.67;5.33;;;;;;;;;;5008613;28;20410;-93
2022/08/22 00:42:16;;;;;;;6.00;5.23;;;;;;;;;;5011177;28;20443;-93
2022/08/22 00:45:01;;;;;;;6.37;6.07;;;;;;;;;;5004909;28;20463;-93
2022/08/22 00:47:44;;;;;;;5.63;5.43;;;;;;;;;;4977501;28;20425;-91
2022/08/22 00:50:29;;;;;;;6.73;5.87;;;;;;;;;;4988274;28;20977;-91
2022/08/22 00:52:55;;;;;;;5.57;5.07;;;;;;;;;;4986398;28;20400;-91
2022/08/22 00:55:24;;;;;;;5.40;5.30;;;;;;;;;;4988984;28;20451;-92
2022/08/22 00:58:09;;;;;;;6.00;5.80;;;;;;;;;;4980553;28;20425;-90
2022/08/22 01:00:41;;;;;;;6.10;5.67;;;;;;;;;;4986445;28;20450;-92
2022/08/22 01:03:21;;;;;;;6.13;5.90;;;;;;;;;;4997508;28;20446;-93
2022/08/22 01:05:50;;;;;;;7.13;6.83;;;;;;;;;;4975195;28;20448;-93
2022/08/22 01:08:20;;;;;;;6.17;5.70;;;;;;;;;;4987476;28;20503;-93
2022/08/22 01:11:05;;;;;;;7.03;6.33;;;;;;;;;;4985240;28;20443;-92
2022/08/22 01:13:41;;;;;;;5.80;5.50;;;;;;;;;;4996945;28;20503;-92
2022/08/22 01:16:17;;;;;;;9.10;5.90;;;;;;;;;;4986218;28;20456;-93
2022/08/22 01:18:56;;;;;;;6.00;5.70;;;;;;;;;;4988001;28;21124;-92
2022/08/22 01:21:34;;;;;;;5.73;5.50;;;;;;;;;;4981031;28;20441;-93
2022/08/22 01:24:00;;;;;;;6.70;6.13;;;;;;;;;;4977806;28;20526;-91
2022/08/22 01:26:32;;;;;;;5.67;5.37;;;;;;;;;;4995232;28;20432;-93
2022/08/22 01:29:17;;;;;;;8.87;6.37;;;;;;;;;;4977798;28;20459;-93
2022/08/22 01:31:43;;;;;;;7.40;6.80;;;;;;;;;;5006721;28;20450;-93
2022/08/22 01:34:15;;;;;;;5.87;5.50;;;;;;;;;;4978135;28;20642;-93
2022/08/22 01:36:56;;;;;;;6.10;5.57;;;;;;;;;;4989575;28;20443;-94
2022/08/22 01:39:31;;;;;;;5.97;5.57;;;;;;;;;;4978261;28;20467;-93
2022/08/22 01:42:05;;;;;;;5.83;5.50;;;;;;;;;;4990555;28;20432;-91
2022/08/22 01:44:47;;;;;;;5.30;5.20;;;;;;;;;;5004111;28;20486;-93
2022/08/22 01:47:16;;;;;;;6.07;5.57;;;;;;;;;;4994759;28;20455;-93
2022/08/22 01:49:46;;;;;;;7.83;6.57;;;;;;;;;;4981584;28;20501;-93
2022/08/22 01:52:15;;;;;;;7.13;6.43;;;;;;;;;;4992257;28;20447;-93
2022/08/22 01:54:41;;;;;;;5.40;5.10;;;;;;;;;;4995458;28;20440;-93
2022/08/22 01:57:08;;;;;;;5.80;5.50;;;;;;;;;;4993299;28;20475;-92
2022/08/22 01:59:39;;;;;;;6.13;5.73;;;;;;;;;;5000275;28;20419;-91
2022/08/22 02:02:12;;;;;;;6.47;6.20;;;;;;;;;;5005434;28;20411;-93
2022/08/22 02:04:37;;;;;;;7.13;5.77;;;;;;;;;;5001510;28;20477;-93
2022/08/22 02:07:16;;;;;;;6.03;5.77;;;;;;;;;;4998497;28;20471;-91
2022/08/22 02:09:45;;;;;;;6.37;5.80;;;;;;;;;;5024594;28;20439;-93
2022/08/22 02:12:10;;;;;;;6.07;5.67;;;;;;;;;;5025923;28;20427;-92
2022/08/22 02:14:43;;;;;;;6.80;6.20;;;;;;;;;;5006170;28;20500;-93
2022/08/22 02:17:21;;;;;;;5.40;5.00;;;;;;;;;;5000344;28;20447;-92
2022/08/22 02:19:59;;;;;;;6.10;5.70;;;;;;;;;;5004910;28;20469;-93
2022/08/22 02:22:29;;;;;;;7.03;6.10;;;;;;;;;;5022564;28;20485;-91
2022/08/22 02:25:14;;;;;;;6.07;5.67;;;;;;;;;;4989462;28;20530;-93
2022/08/22 02:27:52;;;;;;;6.27;5.87;;;;;;;;;;4990709;28;20446;-93
2022/08/22 02:30:21;;;;;;;6.63;6.10;;;;;;;;;;5009710;28;20434;-92
2022/08/22 02:32:57;;;;;;;6.30;6.00;;;;;;;;;;5000838;28;20436;-93
2022/08/22 02:35:27;;;;;;;5.57;5.13;;;;;;;;;;4999294;28;20440;-93
2022/08/22 02:38:12;;;;;;;9.97;7.10;;;;;;;;;;5018997;28;20491;-93
2022/08/22 02:40:41;;;;;;;6.83;6.27;;;;;;;;;;5004277;28;20429;-93
2022/08/22 02:43:11;;;;;;;8.13;6.07;;;;;;;;;;5019182;28;20430;-94
2022/08/22 02:46:00;;;;;;;6.27;5.73;;;;;;;;;;5000897;28;20479;-93
2022/08/22 02:48:26;;;;;;;5.87;5.60;;;;;;;;;;5012584;28;20450;-92
2022/08/22 02:50:58;;;;;;;6.47;5.97;;;;;;;;;;4995550;28;20437;-92
2022/08/22 02:53:43;;;;;;;6.10;5.60;;;;;;;;;;5000030;28;20471;-94
2022/08/22 02:56:12;;;;;;;5.10;4.90;;;;;;;;;;4983510;28;20442;-93
2022/08/22 02:58:58;;;;;;;6.60;6.10;;;;;;;;;;4982691;28;20511;-92
2022/08/22 03:01:28;;;;;;;6.10;5.60;;;;;;;;;;5005276;28;20468;-94
2022/08/22 03:04:20;;;;;;;6.90;6.30;;;;;;;;;;5017185;28;21018;-93
2022/08/22 03:07:04;;;;;;;6.53;5.70;;;;;;;;;;4965661;28;20511;-93
2022/08/22 03:09:34;;;;;;;6.13;5.77;;;;;;;;;;4999855;28;20515;-93
2022/08/22 03:12:20;;;;;;;6.30;5.80;;;;;;;;;;5000562;28;20988;-92
2022/08/22 03:15:05;;;;;;;6.67;6.47;;;;;;;;;;4987586;28;20455;-92
2022/08/22 03:17:38;;;;;;;6.20;5.80;;;;;;;;;;4998242;28;20434;-92
2022/08/22 03:20:11;;;;;;;6.23;5.93;;;;;;;;;;4980231;28;20436;-94
2022/08/22 03:22:43;;;;;;;6.70;6.10;;;;;;;;;;4997062;28;20846;-93
2022/08/22 03:25:20;;;;;;;7.70;6.63;;;;;;;;;;4997578;28;20473;-90
2022/08/22 03:27:53;;;;;;;9.33;6.63;;;;;;;;;;5019089;28;20492;-94
2022/08/22 03:30:29;;;;;;;10.27;6.70;;;;;;;;;;4982066;28;20492;-94
2022/08/22 03:32:58;;;;;;;7.37;6.73;;;;;;;;;;5001241;28;20694;-94
2022/08/22 03:35:43;;;;;;;12.30;6.30;;;;;;;;;;4979888;28;20436;-92
2022/08/22 03:38:18;;;;;;;7.83;7.10;;;;;;;;;;4999965;28;20506;-95
2022/08/22 03:41:03;;;;;;;6.70;6.30;;;;;;;;;;4978975;28;20443;-93
2022/08/22 03:43:38;;;;;;;7.23;6.80;;;;;;;;;;4979016;28;20418;-93
2022/08/22 03:46:19;;;;;;;7.10;6.70;;;;;;;;;;4984110;28;20987;-94
2022/08/22 03:48:55;;;;;;;7.17;6.87;;;;;;;;;;4979442;28;20444;-91
2022/08/22 03:51:24;;;;;;;6.30;5.90;;;;;;;;;;4976568;28;20436;-94
2022/08/22 03:53:50;;;;;;;8.30;7.40;;;;;;;;;;4978695;28;20413;-93
2022/08/22 03:56:26;;;;;;;5.73;5.43;;;;;;;;;;4996733;28;20806;-94
2022/08/22 03:58:52;;;;;;;7.30;6.70;;;;;;;;;;4980003;28;20436;-94
2022/08/22 04:01:21;;;;;;;7.07;6.60;;;;;;;;;;4978959;28;20446;-87
2022/08/22 04:03:51;;;;;;;7.03;6.53;;;;;;;;;;5009559;28;20454;-87
2022/08/22 04:06:17;;;;;;;6.30;6.20;;;;;;;;;;4999354;28;20954;-88
2022/08/22 04:08:57;;;;;;;6.90;6.60;;;;;;;;;;4990812;28;20518;-87
2022/08/22 04:11:23;;;;;;;7.07;6.57;;;;;;;;;;4978772;28;20778;-94
2022/08/22 04:13:59;;;;;;;7.73;7.00;;;;;;;;;;4989949;28;20492;-94
2022/08/22 04:16:31;;;;;;;7.27;6.60;;;;;;;;;;4979277;28;20482;-93
2022/08/22 04:19:03;;;;;;;6.63;6.23;;;;;;;;;;4998790;28;20542;-94
2022/08/22 04:21:32;;;;;;;6.30;6.00;;;;;;;;;;4998018;28;20419;-94
2022/08/22 04:23:58;;;;;;;7.17;6.57;;;;;;;;;;5003199;28;20463;-87
2022/08/22 04:26:30;;;;;;;7.93;7.23;;;;;;;;;;5023878;28;20443;-90
2022/08/22 04:29:01;;;;;;;8.70;7.93;;;;;;;;;;4995817;28;20484;-93
2022/08/22 04:31:30;;;;;;;12.23;7.47;;;;;;;;;;4991529;28;20453;-93
2022/08/22 04:33:59;;;;;;;7.43;6.80;;;;;;;;;;5018847;28;20423;-92
2022/08/22 04:36:25;;;;;;;7.13;6.70;;;;;;;;;;4981902;28;20447;-94
2022/08/22 04:39:11;;;;;;;7.33;6.83;;;;;;;;;;5002698;28;20482;-95
2022/08/22 04:41:49;;;;;;;7.03;6.53;;;;;;;;;;4944335;28;20559;-95
2022/08/22 04:44:23;;;;;;;7.70;6.80;;;;;;;;;;4997101;28;20538;-93
2022/08/22 04:46:56;;;;;;;6.73;6.20;;;;;;;;;;4991915;28;20443;-93
2022/08/22 04:49:37;;;;;;;7.13;6.60;;;;;;;;;;4980323;28;20459;-94
2022/08/22 04:52:03;;;;;;;7.33;6.63;;;;;;;;;;4998582;28;20507;-94
2022/08/22 04:54:29;;;;;;;7.57;6.93;;;;;;;;;;5010512;28;20884;-93
2022/08/22 04:57:07;;;;;;;7.60;7.10;;;;;;;;;;4995769;28;20419;-92
2022/08/22 04:59:33;;;;;;;7.13;6.27;;;;;;;;;;4991689;28;20444;-90
2022/08/22 05:02:05;;;;;;;6.70;6.43;;;;;;;;;;4998706;28;20463;-94
2022/08/22 05:04:36;;;;;;;6.60;6.20;;;;;;;;;;4999420;28;20514;-95
2022/08/22 05:07:24;;;;;;;7.33;6.73;;;;;;;;;;4981522;28;20467;-87
2022/08/22 05:09:53;;;;;;;6.40;6.10;;;;;;;;;;5001213;28;20427;-94
2022/08/22 05:12:39;;;;;;;7.10;6.80;;;;;;;;;;4993162;28;20530;-92
2022/08/22 05:15:15;;;;;;;7.80;7.27;;;;;;;;;;4983353;28;20417;-94
2022/08/22 05:17:42;;;;;;;7.17;6.50;;;;;;;;;;4984648;28;20511;-86
2022/08/22 05:20:10;;;;;;;7.10;6.50;;;;;;;;;;5001860;28;20731;-90
2022/08/22 05:22:42;;;;;;;7.00;6.50;;;;;;;;;;4996905;28;20439;-94
2022/08/22 05:25:11;;;;;;;7.70;7.30;;;;;;;;;;4993213;28;20475;-93
2022/08/22 05:27:48;;;;;;;6.93;6.23;;;;;;;;;;4988478;28;20475;-91
2022/08/22 05:30:21;;;;;;;6.80;6.57;;;;;;;;;;5006250;28;20440;-95
2022/08/22 05:32:50;;;;;;;9.00;8.00;;;;;;;;;;5004204;28;20440;-93
2022/08/22 05:35:18;;;;;;;7.60;6.93;;;;;;;;;;4991388;28;20431;-92
2022/08/22 05:37:49;;;;;;;9.27;7.30;;;;;;;;;;5006813;28;20455;-94
2022/08/22 05:40:25;;;;;;;6.77;6.50;;;;;;;;;;5008011;28;20587;-95
2022/08/22 05:42:51;;;;;;;7.33;6.17;;;;;;;;;;5006566;28;20445;-91
2022/08/22 05:45:18;;;;;;;7.20;6.80;;;;;;;;;;5008352;28;20485;-94
2022/08/22 05:47:50;;;;;;;8.60;5.63;;;;;;;;;;5001800;28;20882;-92
2022/08/22 05:50:19;;;;;;;7.10;6.60;;;;;;;;;;4999258;28;20445;-91
2022/08/22 05:52:58;;;;;;;5.90;5.50;;;;;;;;;;5021028;28;20482;-94
2022/08/22 05:55:46;;;;;;;6.40;6.00;;;;;;;;;;4995041;28;20427;-94
2022/08/22 05:58:44;;;;;;;6.87;6.40;;;;;;;;;;5005673;28;20902;-89
2022/08/22 06:01:16;;;;;;;7.95;5.78;;;;;;;;;;4263935;28;10000652;-92
2022/08/22 06:04:04;;;;;;;6.87;6.30;;;;;;;;;;5016247;28;20180;-92
2022/08/22 06:06:32;;;;;;;10.77;7.70;;;;;;;;;;4941915;28;20435;-93
2022/08/22 06:08:58;;;;;;;6.87;6.23;;;;;;;;;;5004759;28;20470;-93
2022/08/22 06:11:28;;;;;;;7.73;7.20;;;;;;;;;;4994357;28;20716;-93
2022/08/22 06:14:04;;;;;;;7.87;7.10;;;;;;;;;;4997958;28;20534;-94
2022/08/22 06:16:34;;;;;;;9.60;7.60;;;;;;;;;;4993585;28;20443;-93
2022/08/22 06:19:02;;;;;;;7.30;6.90;;;;;;;;;;4997627;28;20526;-91
2022/08/22 06:21:33;;;;;;;7.20;6.77;;;;;;;;;;4997135;28;20467;-93
2022/08/22 06:24:00;;;;;;;7.07;6.53;;;;;;;;;;4989984;28;20469;-93
2022/08/22 06:26:29;;;;;;;7.57;7.03;;;;;;;;;;4997602;28;20817;-91
2022/08/22 06:28:58;;;;;;;6.97;6.47;;;;;;;;;;4995511;28;20909;-94
2022/08/22 06:31:31;;;;;;;7.83;7.23;;;;;;;;;;4986948;28;20560;-94
2022/08/22 06:34:04;;;;;;;6.73;6.33;;;;;;;;;;4997422;28;20423;-92
2022/08/22 06:36:33;;;;;;;7.40;6.90;;;;;;;;;;4998781;28;20834;-93
2022/08/22 06:39:07;;;;;;;7.63;7.03;;;;;;;;;;4991956;28;20430;-92
2022/08/22 06:41:37;;;;;;;7.93;7.13;;;;;;;;;;4991646;28;20492;-91
2022/08/22 06:44:04;;;;;;;7.30;6.70;;;;;;;;;;4991747;28;20494;-91
2022/08/22 06:46:32;;;;;;;7.87;7.33;;;;;;;;;;5006029;28;20427;-92
2022/08/22 06:48:59;;;;;;;8.07;7.33;;;;;;;;;;5011963;28;20443;-89
2022/08/22 06:51:25;;;;;;;9.50;8.70;;;;;;;;;;5004177;28;20440;-95
2022/08/22 06:53:54;;;;;;;7.90;7.30;;;;;;;;;;4995483;28;20447;-94
2022/08/22 06:56:28;;;;;;;9.73;8.07;;;;;;;;;;4998869;28;20431;-89
2022/08/22 06:59:06;;;;;;;8.30;7.50;;;;;;;;;;4992053;28;20422;-93
2022/08/22 07:01:42;;;;;;;8.20;7.40;;;;;;;;;;5002417;28;20491;-94
2022/08/22 07:04:09;;;;;;;8.97;8.00;;;;;;;;;;5001984;28;20463;-95
2022/08/22 07:06:35;;;;;;;7.00;6.40;;;;;;;;;;5001685;28;20449;-96
2022/08/22 07:09:02;;;;;;;9.07;6.87;;;;;;;;;;4985002;28;20393;-94
2022/08/22 07:11:30;;;;;;;8.10;7.37;;;;;;;;;;5003089;28;20727;-90
2022/08/22 07:14:07;;;;;;;10.10;8.37;;;;;;;;;;4992521;28;20501;-93
2022/08/22 07:16:39;;;;;;;8.07;6.90;;;;;;;;;;4999339;28;20508;-93
2022/08/22 07:19:05;;;;;;;7.73;7.20;;;;;;;;;;5004337;28;20455;-96
2022/08/22 07:21:41;;;;;;;6.67;6.23;;;;;;;;;;4996883;28;20455;-95
2022/08/22 07:24:09;;;;;;;7.33;6.63;;;;;;;;;;4984104;28;20463;-93
2022/08/22 07:26:41;;;;;;;6.50;6.00;;;;;;;;;;5001426;28;20519;-92
2022/08/22 07:29:28;;;;;;;8.80;6.27;;;;;;;;;;5004500;28;20447;-93
2022/08/22 07:31:58;;;;;;;7.00;5.90;;;;;;;;;;4982625;28;20448;-94
2022/08/22 07:34:40;;;;;;;5.90;5.60;;;;;;;;;;4990060;28;20514;-93
2022/08/22 07:37:19;;;;;;;5.60;5.30;;;;;;;;;;4999073;28;20434;-94
2022/08/22 07:39:56;;;;;;;5.90;5.60;;;;;;;;;;4999296;28;20862;-94
2022/08/22 07:42:27;;;;;;;5.43;4.80;;;;;;;;;;5000949;28;20431;-95
2022/08/22 07:45:15;;;;;;;5.43;5.00;;;;;;;;;;5003086;28;20482;-94
2022/08/22 07:48:00;;;;;;;6.00;5.10;;;;;;;;;;4994151;28;20917;-88
2022/08/22 07:50:32;;;;;;;5.47;4.97;;;;;;;;;;4991787;28;20435;-93
2022/08/22 07:53:04;;;;;;;5.70;4.93;;;;;;;;;;4995707;28;20446;-95
2022/08/22 07:55:30;;;;;;;5.17;4.77;;;;;;;;;;4999323;28;20441;-96
2022/08/22 07:57:59;;;;;;;5.00;4.50;;;;;;;;;;4992314;28;20611;-94
2022/08/22 08:00:27;;;;;;;5.60;5.27;;;;;;;;;;4989376;28;20497;-94
2022/08/22 08:02:55;;;;;;;4.90;4.60;;;;;;;;;;5000114;28;20753;-93
2022/08/22 08:05:22;;;;;;;6.00;4.60;;;;;;;;;;4989031;28;20475;-92
2022/08/22 08:07:53;;;;;;;5.10;4.67;;;;;;;;;;4995582;28;20548;-92
2022/08/22 08:10:22;;;;;;;5.63;4.77;;;;;;;;;;4992157;28;20852;-93
2022/08/22 08:12:51;;;;;;;6.50;4.80;;;;;;;;;;4997082;28;20870;-92
2022/08/22 08:15:22;;;;;;;6.57;4.53;;;;;;;;;;5002425;28;20427;-91
2022/08/22 08:17:51;;;;;;;4.90;3.83;;;;;;;;;;4997381;28;20447;-91
2022/08/22 08:20:20;;;;;;;7.80;4.70;;;;;;;;;;4988753;28;20416;-90
2022/08/22 08:22:47;;;;;;;4.87;4.20;;;;;;;;;;5001983;28;20501;-92
2022/08/22 08:25:15;;;;;;;3.87;3.57;;;;;;;;;;5001736;28;20470;-90
2022/08/22 08:30:32;;;;;;;4.50;4.30;;;;;;;;;;4996260;28;20419;-92
2022/08/22 08:33:06;;;;;;;4.53;4.33;;;;;;;;;;4985494;28;20452;-90
2022/08/22 08:35:35;;;;;;;3.90;3.70;;;;;;;;;;5000975;28;20442;-91
2022/08/22 08:38:03;;;;;;;4.43;4.13;;;;;;;;;;5010821;28;20437;-89
2022/08/22 08:40:32;;;;;;;4.60;4.20;;;;;;;;;;4985069;28;20816;-90
2022/08/22 08:46:10;;;;;;;3.77;3.40;;;;;;;;;;5014229;28;20470;-91
2022/08/22 08:48:54;;;;;;;3.60;3.00;;;;;;;;;;5017344;28;20439;-92
2022/08/22 08:51:30;;;;;;;4.53;4.17;;;;;;;;;;5004183;28;20419;-91
2022/08/22 08:54:31;;;;;;;4.93;2.97;;;;;;;;;;4991856;28;20439;-93
2022/08/22 08:56:58;;;;;;;3.23;3.00;;;;;;;;;;4918751;29;20451;-92
2022/08/22 08:59:27;;;;;;;3.47;3.30;;;;;;;;;;4996497;28;20424;-91
2022/08/22 09:02:12;;;;;;;3.90;3.60;;;;;;;;;;4995116;28;20454;-93
2022/08/22 09:04:44;;;;;;;5.43;2.60;;;;;;;;;;5001167;28;20733;-92
2022/08/22 09:07:17;;;;;;;3.23;2.47;;;;;;;;;;5004241;28;20501;-93
2022/08/22 09:09:43;;;;;;;3.00;2.80;;;;;;;;;;5000569;28;20480;-93
2022/08/22 09:12:29;;;;;;;4.07;2.90;;;;;;;;;;5003114;28;20476;-92
2022/08/22 09:15:10;;;;;;;2.97;2.87;;;;;;;;;;4999230;28;20423;-93
2022/08/22 09:17:36;;;;;;;4.33;2.90;;;;;;;;;;5002745;28;20517;-90
2022/08/22 09:20:21;;;;;;;3.00;2.80;;;;;;;;;;4656936;28;9999948;-92
2022/08/22 09:23:02;;;;;;;7.10;3.30;;;;;;;;;;5018301;28;20246;-90
2022/08/22 09:25:37;;;;;;;3.45;3.25;;;;;;;;;;5004719;28;20407;-94
2022/08/22 09:28:09;;;;;;;2.97;2.80;;;;;;;;;;4994800;28;20210;-89
2022/08/22 09:30:44;;;;;;;3.00;2.70;;;;;;;;;;4997530;28;20506;-90
2022/08/22 09:33:16;;;;;;;3.97;3.70;;;;;;;;;;4991425;28;20447;-89
2022/08/22 09:36:02;;;;;;;3.10;2.90;;;;;;;;;;4996929;28;20494;-90
2022/08/22 09:38:29;;;;;;;2.90;2.70;;;;;;;;;;5010825;28;20431;-89
2022/08/22 09:41:00;;;;;;;2.83;2.63;;;;;;;;;;4976312;28;20459;-90
2022/08/22 09:43:29;;;;;;;7.43;2.33;;;;;;;;;;4985894;28;20436;-90
2022/08/22 09:46:10;;;;;;;2.80;2.07;;;;;;;;;;4992824;28;20427;-90
2022/08/22 09:48:36;;;;;;;2.80;2.70;;;;;;;;;;4988258;28;20809;-90
2022/08/22 09:51:10;;;;;;;2.47;2.43;;;;;;;;;;4996006;28;20427;-89
2022/08/22 09:53:39;;;;;;;3.77;2.60;;;;;;;;;;4987382;28;20446;-90
2022/08/22 09:56:05;;;;;;;4.63;4.00;;;;;;;;;;4989852;28;20564;-88
2022/08/22 09:59:06;;;;;;;4.57;3.57;;;;;;;;;;4982306;28;20497;-91
2022/08/22 10:01:51;;;;;;;2.50;2.10;;;;;;;;;;4925318;29;21012;-94
2022/08/22 10:04:36;;;;;;;2.60;2.40;;;;;;;;;;4976693;28;20429;-93
2022/08/22 10:07:24;;;;;;;2.20;2.10;;;;;;;;;;4994396;28;20432;-95
2022/08/22 10:10:10;;;;;;;2.40;2.20;;;;;;;;;;4999452;28;20482;-93
2022/08/22 10:12:43;;;;;;;2.20;2.10;;;;;;;;;;4982368;28;20460;-87
2022/08/22 10:15:16;;;;;;;2.33;2.13;;;;;;;;;;4983812;28;20464;-92
2022/08/22 10:18:01;;;;;;;2.20;2.10;;;;;;;;;;4992505;28;20505;-94
2022/08/22 10:20:45;;;;;;;1.90;1.80;;;;;;;;;;5001233;28;20404;-89
2022/08/22 10:23:14;;;;;;;2.00;1.80;;;;;;;;;;4997942;28;20973;-90
2022/08/22 10:25:50;;;;;;;2.10;2.00;;;;;;;;;;4991371;28;20447;-92
2022/08/22 10:28:16;;;;;;;4.43;2.00;;;;;;;;;;4987421;28;20438;-91
2022/08/22 10:30:53;;;;;;;1.27;1.27;;;;;;;;;;5024476;28;20419;-91
2022/08/22 10:33:40;;;;;;;2.43;2.27;;;;;;;;;;4994243;28;20439;-90
2022/08/22 10:36:09;;;;;;;1.73;1.63;;;;;;;;;;4991486;28;20447;-90
2022/08/22 10:38:50;;;;;;;3.50;1.90;;;;;;;;;;4990191;28;20421;-91
2022/08/22 10:41:29;;;;;;;2.00;1.93;;;;;;;;;;5014707;28;20525;-92
2022/08/22 10:44:17;;;;;;;2.27;1.80;;;;;;;;;;4987168;28;20432;-91
2022/08/22 10:46:58;;;;;;;2.53;2.43;;;;;;;;;;4986157;28;20448;-92
2022/08/22 10:49:35;;;;;;;1.90;1.80;;;;;;;;;;5004515;28;20803;-93
2022/08/22 10:52:08;;;;;;;1.93;1.93;;;;;;;;;;4985189;28;20436;-92
2022/08/22 10:54:53;;;;;;;2.10;1.97;;;;;;;;;;4984360;28;20464;-92
2022/08/22 10:57:44;;;;;;;1.83;1.73;;;;;;;;;;4990719;28;20468;-91
2022/08/22 11:00:13;;;;;;;1.80;1.70;;;;;;;;;;5000969;28;20669;-92
2022/08/22 11:02:43;;;;;;;2.07;2.07;;;;;;;;;;5005111;28;20985;-92
2022/08/22 11:05:12;;;;;;;2.33;2.13;;;;;;;;;;4994540;28;20443;-92
2022/08/22 11:07:41;;;;;;;2.83;2.63;;;;;;;;;;5001884;28;20455;-90
2022/08/22 11:10:20;;;;;;;1.90;1.90;;;;;;;;;;5001952;28;20428;-91
2022/08/22 11:12:53;;;;;;;2.80;2.60;;;;;;;;;;5003598;28;20789;-91
2022/08/22 11:15:38;;;;;;;2.87;2.77;;;;;;;;;;3969253;28;10000861;-91
2022/08/22 11:18:10;;;;;;;3.07;2.87;;;;;;;;;;5004713;28;20352;-89
2022/08/22 11:20:57;;;;;;;1.80;1.70;;;;;;;;;;4998752;28;20419;-89
2022/08/22 11:23:41;;;;;;;2.47;2.40;;;;;;;;;;4984079;28;20427;-93
2022/08/22 11:26:17;;;;;;;2.40;2.30;;;;;;;;;;5027576;28;20448;-91
2022/08/22 11:29:00;;;;;;;2.70;2.60;;;;;;;;;;5009495;28;20439;-93
2022/08/22 11:31:39;;;;;;;2.33;2.23;;;;;;;;;;4986580;28;20423;-92
2022/08/22 11:34:08;;;;;;;2.93;2.70;;;;;;;;;;4994934;28;20485;-90
2022/08/22 11:36:51;;;;;;;2.43;2.30;;;;;;;;;;5006438;28;20439;-90
2022/08/22 11:39:20;;;;;;;3.13;2.50;;;;;;;;;;5013400;28;20498;-92
2022/08/22 11:41:55;;;;;;;3.50;3.30;;;;;;;;;;5020681;28;20506;-91
2022/08/22 11:44:41;;;;;;;3.13;2.83;;;;;;;;;;5005655;28;20423;-92
2022/08/22 11:47:10;;;;;;;2.40;2.40;;;;;;;;;;5001195;28;20499;-92
2022/08/22 11:49:39;;;;;;;3.30;3.00;;;;;;;;;;5006316;28;20495;-90
2022/08/22 11:52:23;;;;;;;2.43;2.33;;;;;;;;;;5010431;28;20432;-91
2022/08/22 11:55:02;;;;;;;2.47;2.27;;;;;;;;;;5011729;28;20470;-91
2022/08/22 11:58:03;;;;;;;2.90;2.80;;;;;;;;;;5014310;28;20427;-88
2022/08/22 12:00:38;;;;;;;3.00;2.80;;;;;;;;;;4921160;29;20435;-90
2022/08/22 12:03:22;;;;;;;2.93;2.73;;;;;;;;;;4991093;28;20892;-90
2022/08/22 12:05:57;;;;;;;3.50;3.00;;;;;;;;;;5002453;28;20526;-91
2022/08/22 12:08:23;;;;;;;2.60;2.60;;;;;;;;;;5009903;28;20561;-91
2022/08/22 12:10:55;;;;;;;3.50;3.20;;;;;;;;;;5001460;28;20444;-90
2022/08/22 12:13:39;;;;;;;3.60;3.40;;;;;;;;;;5029277;28;20431;-91
2022/08/22 12:16:20;;;;;;;2.87;2.77;;;;;;;;;;5009412;28;20435;-88
2022/08/22 12:18:52;;;;;;;2.40;2.30;;;;;;;;;;4992639;28;20489;-89
2022/08/22 12:21:46;;;;;;;2.80;2.70;;;;;;;;;;5009011;28;20452;-91
2022/08/22 12:24:12;;;;;;;2.90;2.70;;;;;;;;;;5000972;28;20427;-86
2022/08/22 12:26:47;;;;;;;3.00;2.90;;;;;;;;;;5002189;28;20436;-91
2022/08/22 12:29:32;;;;;;;2.60;2.40;;;;;;;;;;5006586;28;21020;-89
2022/08/22 12:31:58;;;;;;;2.57;2.50;;;;;;;;;;4986612;28;20471;-89
2022/08/22 12:34:53;;;;;;;2.80;2.60;;;;;;;;;;4997932;28;20470;-92
2022/08/22 12:37:48;;;;;;;2.83;2.73;;;;;;;;;;5011883;28;20432;-93
2022/08/22 12:40:30;;;;;;;5.33;3.00;;;;;;;;;;5002621;28;20427;-93
2022/08/22 12:43:12;;;;;;;2.90;2.83;;;;;;;;;;5006178;28;20516;-91
2022/08/22 12:46:02;;;;;;;3.33;3.10;;;;;;;;;;5021420;28;20431;-93
2022/08/22 12:48:31;;;;;;;5.87;3.00;;;;;;;;;;5002353;28;20440;-94
2022/08/22 12:51:11;;;;;;;2.93;2.80;;;;;;;;;;5012280;28;20463;-91
2022/08/22 12:53:56;;;;;;;3.73;2.83;;;;;;;;;;5027213;28;20459;-94
2022/08/22 12:56:22;;;;;;;3.20;2.93;;;;;;;;;;5008943;28;20495;-94
2022/08/22 12:58:48;;;;;;;4.47;3.00;;;;;;;;;;5005609;28;20447;-93
2022/08/22 13:01:15;;;;;;;2.67;2.53;;;;;;;;;;5004102;28;20435;-93
2022/08/22 13:03:47;;;;;;;3.00;2.90;;;;;;;;;;4982504;28;20475;-90
2022/08/22 13:06:22;;;;;;;2.70;2.60;;;;;;;;;;5002158;28;20443;-92
2022/08/22 13:08:48;;;;;;;2.53;2.43;;;;;;;;;;4999583;28;20441;-93
2022/08/22 13:11:14;;;;;;;2.97;2.77;;;;;;;;;;4992300;28;20459;-91
2022/08/22 13:14:00;;;;;;;2.77;2.67;;;;;;;;;;4995671;28;20495;-95
2022/08/22 13:16:43;;;;;;;3.40;2.90;;;;;;;;;;4986303;28;20439;-94
2022/08/22 13:19:16;;;;;;;2.80;2.70;;;;;;;;;;5036536;23;20721;-91
2022/08/22 13:21:49;;;;;;;3.40;3.17;;;;;;;;;;4983876;28;20560;-93
2022/08/22 13:24:17;;;;;;;3.33;3.13;;;;;;;;;;4985351;28;20446;-93
2022/08/22 13:26:55;;;;;;;3.23;3.10;;;;;;;;;;4979167;28;20472;-93
2022/08/22 13:29:25;;;;;;;3.93;3.70;;;;;;;;;;4981365;28;20417;-91
2022/08/22 13:31:59;;;;;;;3.50;3.40;;;;;;;;;;4978700;28;20425;-92
2022/08/22 13:34:51;;;;;;;2.87;2.73;;;;;;;;;;4983620;28;20480;-89
2022/08/22 13:40:18;;;;;;;3.43;3.33;;;;;;;;;;4989937;28;20436;-92
2022/08/22 13:42:50;;;;;;;3.33;3.10;;;;;;;;;;4984003;28;20452;-91
2022/08/22 13:45:21;;;;;;;3.67;3.47;;;;;;;;;;4981018;28;20440;-93
2022/08/22 13:47:52;;;;;;;3.37;3.17;;;;;;;;;;4975872;28;20450;-89
2022/08/22 13:50:20;;;;;;;2.90;2.80;;;;;;;;;;4992651;28;20464;-90
2022/08/22 13:53:16;;;;;;;4.17;3.63;;;;;;;;;;5011426;28;20448;-93
2022/08/22 13:55:48;;;;;;;3.57;3.30;;;;;;;;;;4956368;28;20484;-91
2022/08/22 13:58:14;;;;;;;9.30;8.40;;;;;;;;;;4985453;28;20452;-90
2022/08/22 14:01:01;;;;;;;3.90;3.27;;;;;;;;;;4968576;28;20422;-91
2022/08/22 14:03:44;;;;;;;3.43;3.23;;;;;;;;;;4998545;28;20420;-91
2022/08/22 14:06:33;;;;;;;3.47;3.37;;;;;;;;;;4965129;28;20630;-92
2022/08/22 14:09:04;;;;;;;3.70;3.40;;;;;;;;;;4274185;28;10000909;-91
2022/08/22 14:11:45;;;;;;;3.60;3.50;;;;;;;;;;4985020;28;20236;-91
2022/08/22 14:14:12;;;;;;;3.53;3.20;;;;;;;;;;4969059;28;20471;-92
2022/08/22 14:16:49;;;;;;;3.67;3.47;;;;;;;;;;4968275;28;20542;-92
2022/08/22 14:19:24;;;;;;;4.53;4.23;;;;;;;;;;4972129;28;20446;-93
2022/08/22 14:21:54;;;;;;;3.20;2.90;;;;;;;;;;4979216;28;20918;-91
2022/08/22 14:24:22;;;;;;;5.20;4.10;;;;;;;;;;4977540;28;20421;-94
2022/08/22 14:26:55;;;;;;;6.87;6.57;;;;;;;;;;4981750;28;20451;-93
2022/08/22 14:29:22;;;;;;;3.70;3.50;;;;;;;;;;4970322;28;20432;-93
2022/08/22 14:31:59;;;;;;;3.93;2.97;;;;;;;;;;4995840;28;20436;-93
2022/08/22 14:34:25;;;;;;;3.80;3.53;;;;;;;;;;4994046;28;20886;-94
2022/08/22 14:37:02;;;;;;;2.80;2.67;;;;;;;;;;4967948;28;20472;-91
2022/08/22 14:39:32;;;;;;;3.03;3.03;;;;;;;;;;4969946;28;20435;-92
2022/08/22 14:42:18;;;;;;;4.50;3.70;;;;;;;;;;4975761;28;20429;-93
2022/08/22 14:44:49;;;;;;;4.43;3.20;;;;;;;;;;4991622;28;20417;-92
2022/08/22 14:47:26;;;;;;;3.43;3.23;;;;;;;;;;4980479;28;20456;-92
2022/08/22 14:49:54;;;;;;;3.30;3.10;;;;;;;;;;4971689;28;21135;-94
2022/08/22 14:52:32;;;;;;;2.90;2.70;;;;;;;;;;4980456;28;20516;-93
2022/08/22 14:55:27;;;;;;;3.27;3.13;;;;;;;;;;4977043;28;20972;-92
2022/08/22 14:57:56;;;;;;;3.10;3.00;;;;;;;;;;4971173;28;20441;-92
2022/08/22 15:00:32;;;;;;;3.57;3.33;;;;;;;;;;4985307;28;20437;-91
2022/08/22 15:03:07;;;;;;;14.33;13.20;;;;;;;;;;4994085;28;20442;-90
2022/08/22 15:05:39;;;;;;;3.40;3.30;;;;;;;;;;4987135;28;20424;-89
2022/08/22 15:08:07;;;;;;;4.03;3.67;;;;;;;;;;4966820;28;20437;-92
2022/08/22 15:10:33;;;;;;;3.20;3.10;;;;;;;;;;4989697;28;20442;-91
2022/08/22 15:13:08;;;;;;;3.37;3.27;;;;;;;;;;4974557;28;20608;-92
2022/08/22 15:15:44;;;;;;;4.10;3.43;;;;;;;;;;4968259;28;20479;-93
2022/08/22 15:18:18;;;;;;;3.00;2.90;;;;;;;;;;4963092;28;20765;-92
2022/08/22 15:20:45;;;;;;;3.30;3.20;;;;;;;;;;4967844;28;20496;-91
2022/08/22 15:23:21;;;;;;;3.63;3.43;;;;;;;;;;4961284;28;20441;-93
2022/08/22 15:26:01;;;;;;;4.37;3.10;;;;;;;;;;4980003;28;20442;-90
2022/08/22 15:28:29;;;;;;;2.80;2.70;;;;;;;;;;4968429;28;20455;-91
2022/08/22 15:31:14;;;;;;;3.50;3.33;;;;;;;;;;4978317;28;20892;-91
2022/08/22 15:33:41;;;;;;;4.20;4.10;;;;;;;;;;4980496;28;20435;-90
2022/08/22 15:36:10;;;;;;;3.37;3.27;;;;;;;;;;4971841;28;20988;-90